Offerle, KS (67563)

3:23 AM CDT on August 22, 2014 (GMT -0500)
Spearville, KS | Change Station
CLOSE
Current Station
Personal Weather Station
Location: Spearville, KS
Elevation: 2470 ft
Nearby Weather Stations

Elev 2470 ft 37.84 °N, 99.75 °W | Updated 3 minutes ago

Clear
Clear
81.9 °F
Feels Like 84 °F
N
-
Wind Variable Wind from North

Today
High -- | Low -- °F
--% Chance of Precip.
Yesterday
High -- | Low -- °F
Precip. -- in
6:59 AM 8:21 PM
Waning Crescent, 9% visible
Pressure 29.81 in
Visibility 10.0 miles
Clouds Clear
Heat Index 84 °F
Dew Point 65 °F
Humidity 60%
Rainfall -999.00 in
Snow Depth Not available.
UV 0 out of 12
Pollen 11.20 out of 12
Air Quality Not available.
Flu Activity Not available.
METAR KDDC 220752Z AUTO 19008KT 10SM CLR 26/18 A2993 RMK AO2 RAE0659 SLP093 P0000 T02560178

More Conditions Fewer Conditions

Pressure 29.81 in
Visibility 10.0 miles
Clouds Clear
Heat Index 84 °F
Dew Point 65 °F
Humidity 60%
Rainfall -999.00 in
Snow Depth Not available.
UV 0 out of 12
Pollen 11.20 out of 12
Air Quality Not available.
Flu Activity Not available.
METAR KDDC 220752Z AUTO 19008KT 10SM CLR 26/18 A2993 RMK AO2 RAE0659 SLP093 P0000 T02560178

More Conditions Fewer Conditions

10-Day Weather Forecast

Almanac

Astronomy

Aug. 22, 2014 Rise Set
Actual Time 6:59 AM CDT 8:21 PM CDT
Civil Twilight 6:32 AM CDT 8:49 PM CDT
Nautical Twilight 5:59 AM CDT 9:21 PM CDT
Astronomical Twilight 5:24 AM CDT 9:56 PM CDT
Moon 4:24 AM CDT 6:30 PM CDT
Length of Visible Light 14h 17m
Length of Day
13h 22m
Tomorrow will be 2m 15s shorter.
Waning Crescent, 9% of the Moon is Illuminated
Today
Waning Crescent
Aug 25
New
Sep 2
First Quarter
Sep 8
Full
Sep 15
Last Quarter

Today's Extremes

State Highs State Lows

Community

WunderPhotos

Upload Photos

1,746,144 photos uploaded!

Nearby

Snow Depth

Station Depth Elevation
No new snow has been reported.

Earthquake Activity

City Distance Mag. Time & Date
Cherokee, Oklahoma 100 miles 2.6 11:50 AM CDT
2014-08-17
Medford, Oklahoma 114 miles 3.1 11:35 AM CDT
2014-08-17
Medford, Oklahoma 114 miles 3.4 10:59 AM CDT
2014-08-17
Medford, Oklahoma 117 miles 2.7 2:28 AM CDT
2014-08-17
Minimum magnitude displayed is 2.5.

Coastal Water Temperatures

Place Temperature
No Stations Reporting

Nearby Weather Stations